createdAt,value
2019-03-18T00:01:15.838Z,82.96
2019-03-18T00:04:22.133Z,82.87
2019-03-18T00:07:28.656Z,83.10
2019-03-18T00:10:35.273Z,82.92
2019-03-18T00:13:41.569Z,82.75
2019-03-18T00:16:47.920Z,82.84
2019-03-18T00:19:55.886Z,82.97
2019-03-18T00:23:02.447Z,82.85
2019-03-18T00:26:12.058Z,82.72
2019-03-18T00:29:18.617Z,83.02
2019-03-18T00:32:25.784Z,82.98
2019-03-18T00:35:32.208Z,83.29
2019-03-18T00:38:39.152Z,82.83
2019-03-18T00:41:45.625Z,83.15
2019-03-18T00:44:52.195Z,82.76
2019-03-18T00:48:00.228Z,82.79
2019-03-18T00:51:09.211Z,82.82
2019-03-18T00:54:15.735Z,82.69
2019-03-18T00:57:23.489Z,82.06
2019-03-18T01:00:30.041Z,82.12
2019-03-18T01:03:36.469Z,82.10
2019-03-18T01:06:43.884Z,81.87
2019-03-18T01:09:50.782Z,81.92
2019-03-18T01:12:58.835Z,81.62
2019-03-18T01:16:05.594Z,81.95
2019-03-18T01:19:12.080Z,81.75
2019-03-18T01:22:18.532Z,81.96
2019-03-18T01:25:26.129Z,81.79
2019-03-18T01:28:34.377Z,82.02
2019-03-18T01:31:41.056Z,82.06
2019-03-18T01:34:49.438Z,81.87
2019-03-18T01:37:57.315Z,81.89
2019-03-18T01:41:03.726Z,82.11
2019-03-18T01:44:10.380Z,82.31
2019-03-18T01:47:18.233Z,82.65
2019-03-18T01:50:24.709Z,82.11
2019-03-18T01:53:31.539Z,82.09
2019-03-18T01:56:37.933Z,82.10
2019-03-18T01:59:46.128Z,82.42
2019-03-18T02:02:52.515Z,82.27
2019-03-18T02:05:59.584Z,82.12
2019-03-18T02:09:06.882Z,82.13
2019-03-18T02:12:15.174Z,81.89
2019-03-18T02:15:21.601Z,81.93
2019-03-18T02:18:27.967Z,82.01
2019-03-18T02:21:34.263Z,81.90
2019-03-18T02:24:40.761Z,81.71
2019-03-18T02:27:47.224Z,81.83
2019-03-18T02:30:54.454Z,82.04
2019-03-18T02:34:02.575Z,82.53
2019-03-18T02:37:09.955Z,81.79
2019-03-18T02:40:17.857Z,81.63
2019-03-18T02:43:24.278Z,81.97
2019-03-18T02:46:30.618Z,82.16
2019-03-18T02:49:37.438Z,82.00
2019-03-18T02:52:43.741Z,82.35
2019-03-18T02:55:50.192Z,82.21
2019-03-18T02:58:58.157Z,82.59
2019-03-18T03:02:04.643Z,82.92
2019-03-18T03:05:11.484Z,83.01
2019-03-18T03:08:18.412Z,82.60
2019-03-18T03:11:24.669Z,83.13
2019-03-18T03:14:32.153Z,82.74
2019-03-18T03:17:38.533Z,82.19
2019-03-18T03:20:45.659Z,82.18
2019-03-18T03:23:52.041Z,82.18
2019-03-18T03:26:58.786Z,82.36
2019-03-18T03:30:05.734Z,82.22
2019-03-18T03:33:12.105Z,82.29
2019-03-18T03:36:21.731Z,82.35
2019-03-18T03:39:29.663Z,82.57
2019-03-18T03:42:36.001Z,82.23
2019-03-18T03:45:43.102Z,82.07
2019-03-18T03:48:49.601Z,82.00
2019-03-18T03:51:56.010Z,82.21
2019-03-18T03:55:02.399Z,82.12
2019-03-18T03:58:08.789Z,81.93
2019-03-18T04:01:15.107Z,81.65
2019-03-18T04:04:23.947Z,81.54
2019-03-18T04:07:30.484Z,81.33
2019-03-18T04:10:37.491Z,81.17
2019-03-18T04:13:43.748Z,80.91
2019-03-18T04:17:01.612Z,80.67
2019-03-18T04:20:04.109Z,80.65
2019-03-18T04:23:10.671Z,80.78
2019-03-18T04:26:18.404Z,80.51
2019-03-18T04:29:24.882Z,80.78
2019-03-18T04:32:31.364Z,80.72
2019-03-18T04:35:37.774Z,80.72
2019-03-18T04:38:44.353Z,80.86
2019-03-18T04:41:51.164Z,80.80
2019-03-18T04:44:57.554Z,81.04
2019-03-18T04:48:04.039Z,81.09
2019-03-18T04:51:10.394Z,81.09
2019-03-18T04:54:17.780Z,81.07
2019-03-18T04:57:24.204Z,81.51
2019-03-18T05:00:30.768Z,81.12
2019-03-18T05:03:37.163Z,81.68
2019-03-18T05:06:45.005Z,82.06
2019-03-18T05:09:51.429Z,82.72
2019-03-18T05:12:57.831Z,83.33
2019-03-18T05:16:04.187Z,83.54
2019-03-18T05:19:11.973Z,83.93
2019-03-18T05:22:20.194Z,84.27
2019-03-18T05:25:26.569Z,84.93
2019-03-18T05:28:32.895Z,84.53
2019-03-18T05:31:39.464Z,84.71
2019-03-18T05:34:46.069Z,85.26
2019-03-18T05:37:55.734Z,85.26
2019-03-18T05:41:02.583Z,85.77
2019-03-18T05:44:09.181Z,85.88
2019-03-18T05:47:15.729Z,85.62
2019-03-18T05:50:24.890Z,85.67
2019-03-18T05:53:31.151Z,86.32
2019-03-18T05:56:38.043Z,86.30
2019-03-18T05:59:44.412Z,86.19
2019-03-18T06:02:50.706Z,86.25
2019-03-18T06:05:57.040Z,86.04
2019-03-18T06:09:04.983Z,85.91
2019-03-18T06:12:13.275Z,85.21
2019-03-18T06:15:19.602Z,85.10
2019-03-18T06:18:26.012Z,85.02
2019-03-18T06:21:32.408Z,83.90
2019-03-18T06:24:39.516Z,83.38
2019-03-18T06:27:46.305Z,82.87
2019-03-18T06:30:52.655Z,82.49
2019-03-18T06:33:59.131Z,82.85
2019-03-18T06:37:05.628Z,82.36
2019-03-18T06:40:12.426Z,81.73
2019-03-18T06:43:19.330Z,81.39
2019-03-18T06:46:26.262Z,81.63
2019-03-18T06:49:32.635Z,81.33
2019-03-18T06:52:38.990Z,81.82
2019-03-18T06:55:45.450Z,81.69
2019-03-18T06:58:51.809Z,82.20
2019-03-18T07:01:58.235Z,81.89
2019-03-18T07:05:05.145Z,81.72
2019-03-18T07:08:11.594Z,81.72
2019-03-18T07:11:17.961Z,81.54
2019-03-18T07:14:25.553Z,80.55
2019-03-18T07:17:31.958Z,81.09
2019-03-18T07:20:38.298Z,81.15
2019-03-18T07:23:45.224Z,80.57
2019-03-18T07:26:51.809Z,80.63
2019-03-18T07:29:58.254Z,81.14
2019-03-18T07:33:04.602Z,82.19
2019-03-18T07:36:10.999Z,81.45
2019-03-18T07:39:17.375Z,81.19
2019-03-18T07:42:24.320Z,80.98
2019-03-18T07:45:31.423Z,82.18
2019-03-18T07:48:38.121Z,81.79
2019-03-18T07:51:44.793Z,81.63
2019-03-18T07:54:51.601Z,81.75
2019-03-18T07:57:57.883Z,81.81
2019-03-18T08:01:04.409Z,80.91
2019-03-18T08:04:10.772Z,80.94
2019-03-18T08:07:17.266Z,81.11
2019-03-18T08:10:23.614Z,81.41
2019-03-18T08:13:29.970Z,81.00
2019-03-18T08:16:36.405Z,81.75
2019-03-18T08:19:42.880Z,81.20
2019-03-18T08:22:49.253Z,80.71
2019-03-18T08:25:55.696Z,80.75
2019-03-18T08:29:02.042Z,80.86
2019-03-18T08:32:11.778Z,81.12
2019-03-18T08:35:20.262Z,81.67
2019-03-18T08:38:26.576Z,81.51
2019-03-18T08:41:32.966Z,82.02
2019-03-18T08:44:40.600Z,82.29
2019-03-18T08:47:47.346Z,82.29
2019-03-18T08:50:53.964Z,82.93
2019-03-18T08:54:00.310Z,82.83
2019-03-18T08:57:06.704Z,82.64
2019-03-18T09:00:13.126Z,83.06
2019-03-18T09:03:19.418Z,83.24
2019-03-18T09:06:25.795Z,83.82
2019-03-18T09:09:32.072Z,83.86
2019-03-18T09:12:38.388Z,84.07
2019-03-18T09:15:45.207Z,84.45
2019-03-18T09:18:51.578Z,84.36
2019-03-18T09:21:58.044Z,84.41
2019-03-18T09:25:04.860Z,84.04
2019-03-18T09:28:11.275Z,84.26
2019-03-18T09:31:18.018Z,85.09
2019-03-18T09:34:26.326Z,85.26
2019-03-18T09:37:32.589Z,86.04
2019-03-18T09:40:38.945Z,84.92
2019-03-18T09:43:45.582Z,85.23
2019-03-18T09:46:51.989Z,85.44
2019-03-18T09:49:58.507Z,85.24
2019-03-18T09:53:05.100Z,85.44
2019-03-18T09:56:11.574Z,85.82
2019-03-18T09:59:18.015Z,85.08
2019-03-18T10:02:24.564Z,85.11
2019-03-18T10:05:30.921Z,84.64
2019-03-18T10:08:37.505Z,84.79
2019-03-18T10:11:44.053Z,84.21
2019-03-18T10:14:50.477Z,84.49
2019-03-18T10:17:56.753Z,84.38
2019-03-18T10:21:03.149Z,83.42
2019-03-18T10:24:09.591Z,84.43
2019-03-18T10:27:15.925Z,84.47
2019-03-18T10:30:22.504Z,84.34
2019-03-18T10:33:28.938Z,83.24
2019-03-18T10:36:35.277Z,83.75
2019-03-18T10:39:41.595Z,83.34
2019-03-18T10:42:48.153Z,83.68
2019-03-18T10:45:54.624Z,83.01
2019-03-18T10:49:01.154Z,82.43
2019-03-18T10:52:07.957Z,81.74
2019-03-18T10:55:14.722Z,80.66
2019-03-18T10:58:21.119Z,81.83
2019-03-18T11:01:28.379Z,81.93
2019-03-18T11:04:34.727Z,81.38
2019-03-18T11:07:41.272Z,81.17
2019-03-18T11:10:47.764Z,80.03
2019-03-18T11:13:54.209Z,80.74
2019-03-18T11:17:00.464Z,80.26
2019-03-18T11:20:07.386Z,80.43
2019-03-18T11:23:13.738Z,80.39
2019-03-18T11:26:20.295Z,80.61
2019-03-18T11:29:26.713Z,81.09
2019-03-18T11:32:34.138Z,79.32
2019-03-18T11:35:40.561Z,79.72
2019-03-18T11:38:46.970Z,80.56
2019-03-18T11:41:53.453Z,80.48
2019-03-18T11:44:59.935Z,80.26
2019-03-18T11:48:06.469Z,80.81
2019-03-18T11:51:12.841Z,80.40
2019-03-18T11:54:19.584Z,80.72
2019-03-18T11:57:26.335Z,80.76
2019-03-18T12:00:32.740Z,79.68
2019-03-18T12:03:39.061Z,80.82
2019-03-18T12:06:45.398Z,80.31
2019-03-18T12:09:51.771Z,80.28
2019-03-18T12:12:58.125Z,80.55
2019-03-18T12:16:04.485Z,80.27
2019-03-18T12:19:10.724Z,79.92
2019-03-18T12:22:17.238Z,79.91
2019-03-18T12:25:23.631Z,80.02
2019-03-18T12:28:29.926Z,80.35
2019-03-18T12:31:36.361Z,79.98
2019-03-18T12:34:42.749Z,79.31
2019-03-18T12:37:49.162Z,79.58
2019-03-18T12:40:55.523Z,78.74
2019-03-18T12:44:01.791Z,77.68
2019-03-18T12:47:08.238Z,77.48
2019-03-18T12:50:15.615Z,77.67
2019-03-18T12:53:21.881Z,76.70
2019-03-18T12:56:28.538Z,76.00
2019-03-18T12:59:35.391Z,77.03
2019-03-18T13:02:41.707Z,77.43
2019-03-18T13:05:48.152Z,78.19
2019-03-18T13:08:54.496Z,79.18
2019-03-18T13:12:00.784Z,79.21
2019-03-18T13:15:08.304Z,80.69
2019-03-18T13:18:15.859Z,81.26
2019-03-18T13:21:22.120Z,81.24
2019-03-18T13:24:28.444Z,81.05
2019-03-18T13:27:34.835Z,81.40
2019-03-18T13:30:41.202Z,81.60
2019-03-18T13:33:47.468Z,82.52
2019-03-18T13:36:53.997Z,83.06
2019-03-18T13:40:00.438Z,82.81
2019-03-18T13:43:06.787Z,83.50
2019-03-18T13:46:13.110Z,83.74
2019-03-18T13:49:19.568Z,83.99
2019-03-18T13:52:25.851Z,82.99
2019-03-18T13:55:32.351Z,83.05
2019-03-18T13:58:40.448Z,82.59
2019-03-18T14:01:47.501Z,82.33
2019-03-18T14:04:53.940Z,82.93
2019-03-18T14:08:01.377Z,83.44
2019-03-18T14:11:07.952Z,83.84
2019-03-18T14:14:15.836Z,83.91
2019-03-18T14:17:23.827Z,84.09
2019-03-18T14:20:30.183Z,85.07
2019-03-18T14:23:36.541Z,86.29
2019-03-18T14:26:43.036Z,86.20
2019-03-18T14:29:49.401Z,85.29
2019-03-18T14:32:55.929Z,84.90
2019-03-18T14:36:02.154Z,85.26
2019-03-18T14:39:08.508Z,85.61
2019-03-18T14:42:15.059Z,85.51
2019-03-18T14:45:21.475Z,85.47
2019-03-18T14:48:27.819Z,85.14
2019-03-18T14:51:45.287Z,85.16
2019-03-18T14:54:42.267Z,84.48
2019-03-18T14:57:48.732Z,85.39
2019-03-18T15:00:55.321Z,84.76
2019-03-18T15:04:01.867Z,85.22
2019-03-18T15:07:08.557Z,85.74
2019-03-18T15:10:15.127Z,85.85
2019-03-18T15:13:30.300Z,86.24
2019-03-18T15:16:29.594Z,86.36
2019-03-18T15:19:36.071Z,86.16
2019-03-18T15:22:42.477Z,86.55
2019-03-18T15:25:48.827Z,86.79
2019-03-18T15:28:58.405Z,87.00
2019-03-18T15:32:05.925Z,87.01
2019-03-18T15:35:13.952Z,86.46
2019-03-18T15:38:20.249Z,85.87
2019-03-18T15:41:26.608Z,85.82
2019-03-18T15:44:33.038Z,84.32
2019-03-18T15:47:39.638Z,84.23
2019-03-18T15:50:46.069Z,83.11
2019-03-18T15:53:52.477Z,83.12
2019-03-18T15:57:00.254Z,83.18
2019-03-18T16:00:08.455Z,82.74
2019-03-18T16:03:15.874Z,82.52
2019-03-18T16:06:22.645Z,83.32
2019-03-18T16:09:29.109Z,81.71
2019-03-18T16:12:35.652Z,82.28
2019-03-18T16:15:41.937Z,81.90
2019-03-18T16:18:48.365Z,82.32
2019-03-18T16:21:54.706Z,81.19
2019-03-18T16:25:01.088Z,81.78
2019-03-18T16:28:07.519Z,82.14
2019-03-18T16:31:13.922Z,82.00
2019-03-18T16:34:20.289Z,81.19
2019-03-18T16:37:26.846Z,81.81
2019-03-18T16:40:33.204Z,81.73
2019-03-18T16:43:39.688Z,82.03
2019-03-18T16:46:46.096Z,82.35
2019-03-18T16:49:52.527Z,81.72
2019-03-18T16:52:58.991Z,82.87
2019-03-18T16:56:05.521Z,82.47
2019-03-18T16:59:18.758Z,81.82
2019-03-18T17:02:26.796Z,81.45
2019-03-18T17:05:33.457Z,81.41
2019-03-18T17:08:39.948Z,83.17
2019-03-18T17:11:46.497Z,82.23
2019-03-18T17:14:52.869Z,82.11
2019-03-18T17:17:59.236Z,83.48
2019-03-18T17:21:07.361Z,82.99
2019-03-18T17:24:14.802Z,83.15
2019-03-18T17:27:21.433Z,83.41
2019-03-18T17:30:36.978Z,83.22
2019-03-18T17:33:48.927Z,82.52
2019-03-18T17:37:11.690Z,83.23
2019-03-18T17:40:17.605Z,83.14
2019-03-18T17:43:24.224Z,84.00
2019-03-18T17:46:30.636Z,82.19
2019-03-18T17:49:37.346Z,82.90
2019-03-18T17:52:43.799Z,82.50
2019-03-18T17:55:50.373Z,83.82
2019-03-18T17:58:56.741Z,83.18
2019-03-18T18:02:03.107Z,83.76
2019-03-18T18:05:09.622Z,83.22
2019-03-18T18:08:18.308Z,83.50
2019-03-18T18:11:24.391Z,83.70
2019-03-18T18:14:30.846Z,84.11
2019-03-18T18:17:37.623Z,83.11
2019-03-18T18:20:44.192Z,83.27
2019-03-18T18:23:52.229Z,82.54
2019-03-18T18:26:58.693Z,81.18
2019-03-18T18:30:05.810Z,81.86
2019-03-18T18:33:12.414Z,82.59
2019-03-18T18:36:19.018Z,82.60
2019-03-18T18:39:27.036Z,83.00
2019-03-18T18:42:33.437Z,82.57
2019-03-18T18:45:42.523Z,83.51
2019-03-18T18:48:48.909Z,83.90
2019-03-18T18:51:57.937Z,83.85
2019-03-18T18:55:04.524Z,83.36
2019-03-18T18:58:10.835Z,83.46
2019-03-18T19:01:19.349Z,82.87
2019-03-18T19:04:25.721Z,83.26
2019-03-18T19:07:32.082Z,82.22
2019-03-18T19:10:38.569Z,82.66
2019-03-18T19:13:45.278Z,82.09
2019-03-18T19:16:51.644Z,82.90
2019-03-18T19:19:58.114Z,82.78
2019-03-18T19:23:04.458Z,82.02
2019-03-18T19:26:10.819Z,83.86
2019-03-18T19:29:17.289Z,83.00
2019-03-18T19:32:24.020Z,82.48
2019-03-18T19:35:30.480Z,84.02
2019-03-18T19:38:37.079Z,83.50
2019-03-18T19:41:43.532Z,82.74
2019-03-18T19:44:50.006Z,82.42
2019-03-18T19:47:57.266Z,82.62
2019-03-18T19:51:03.774Z,81.39
2019-03-18T19:54:12.729Z,81.75
2019-03-18T19:57:18.243Z,81.53
2019-03-18T20:00:24.618Z,80.97
2019-03-18T20:03:31.275Z,81.66
2019-03-18T20:06:37.710Z,80.77
2019-03-18T20:09:46.331Z,81.40
2019-03-18T20:12:59.342Z,81.17
2019-03-18T20:16:08.119Z,80.62
2019-03-18T20:19:16.363Z,81.00
2019-03-18T20:22:22.995Z,81.49
2019-03-18T20:25:29.418Z,81.30
2019-03-18T20:28:35.881Z,81.86
2019-03-18T20:31:43.270Z,81.86
2019-03-18T20:34:49.634Z,82.18
2019-03-18T20:37:56.023Z,81.98
2019-03-18T20:41:02.575Z,82.33
2019-03-18T20:44:08.888Z,83.11
2019-03-18T20:47:15.608Z,83.48
2019-03-18T20:50:25.488Z,83.97
2019-03-18T20:53:31.879Z,83.84
2019-03-18T20:56:38.261Z,82.68
2019-03-18T20:59:44.693Z,83.56
2019-03-18T21:02:51.046Z,83.13
2019-03-18T21:05:57.613Z,84.10
2019-03-18T21:09:04.845Z,83.90
2019-03-18T21:12:11.372Z,82.67
2019-03-18T21:15:19.956Z,82.67
2019-03-18T21:18:26.642Z,83.14
2019-03-18T21:21:33.066Z,82.62
2019-03-18T21:24:39.745Z,82.27
2019-03-18T21:27:46.083Z,81.85
2019-03-18T21:30:52.451Z,81.37
2019-03-18T21:33:58.910Z,81.57
2019-03-18T21:37:05.306Z,80.73
2019-03-18T21:40:12.325Z,80.73
2019-03-18T21:43:18.918Z,80.96
2019-03-18T21:46:25.296Z,82.46
2019-03-18T21:49:31.705Z,81.74
2019-03-18T21:52:38.062Z,81.51
2019-03-18T21:55:44.517Z,81.15
2019-03-18T21:58:50.941Z,81.85
2019-03-18T22:01:57.415Z,81.26
2019-03-18T22:05:03.747Z,81.99
2019-03-18T22:08:10.154Z,81.68
2019-03-18T22:11:16.619Z,82.47
2019-03-18T22:14:22.914Z,82.65
2019-03-18T22:17:30.082Z,82.32
2019-03-18T22:20:36.735Z,81.85
2019-03-18T22:23:43.714Z,81.81
2019-03-18T22:26:50.225Z,81.80
2019-03-18T22:29:56.749Z,82.03
2019-03-18T22:33:03.093Z,82.50
2019-03-18T22:36:09.476Z,82.52
2019-03-18T22:39:15.958Z,81.87
2019-03-18T22:42:22.334Z,81.61
2019-03-18T22:45:28.694Z,81.56
2019-03-18T22:48:35.201Z,81.12
2019-03-18T22:51:41.545Z,80.86
2019-03-18T22:54:55.542Z,81.13
2019-03-18T22:57:56.150Z,81.55
2019-03-18T23:01:08.027Z,81.89
2019-03-18T23:04:14.633Z,82.07
2019-03-18T23:07:21.143Z,81.76
2019-03-18T23:10:27.427Z,81.56
2019-03-18T23:13:33.701Z,82.67
2019-03-18T23:16:40.307Z,82.35
2019-03-18T23:19:47.046Z,82.18
2019-03-18T23:22:53.614Z,82.61
2019-03-18T23:26:00.048Z,83.07
2019-03-18T23:29:06.416Z,83.01
2019-03-18T23:32:12.747Z,82.55
2019-03-18T23:35:19.306Z,82.55
2019-03-18T23:38:25.597Z,82.59
2019-03-18T23:41:32.126Z,82.37
2019-03-18T23:44:39.437Z,82.22
2019-03-18T23:47:45.820Z,81.76
2019-03-18T23:50:52.207Z,81.49
2019-03-18T23:53:58.474Z,82.43
2019-03-18T23:57:04.828Z,82.07
